createdAt,value
2018-07-03T00:01:06.635Z,47.14
2018-07-03T00:03:35.417Z,46.40
2018-07-03T00:06:05.089Z,46.98
2018-07-03T00:08:33.753Z,47.09
2018-07-03T00:11:02.416Z,48.21
2018-07-03T00:13:31.122Z,48.14
2018-07-03T00:15:59.821Z,47.93
2018-07-03T00:18:28.513Z,48.10
2018-07-03T00:20:57.195Z,48.46
2018-07-03T00:23:25.856Z,49.30
2018-07-03T00:25:55.097Z,49.05
2018-07-03T00:28:23.763Z,48.67
2018-07-03T00:30:52.486Z,48.53
2018-07-03T00:33:21.542Z,48.83
2018-07-03T00:35:50.494Z,48.85
2018-07-03T00:38:19.168Z,48.96
2018-07-03T00:40:47.839Z,49.11
2018-07-03T00:43:16.495Z,48.69
2018-07-03T00:45:45.153Z,49.00
2018-07-03T00:48:13.864Z,48.90
2018-07-03T00:50:42.487Z,49.98
2018-07-03T00:53:11.190Z,50.17
2018-07-03T00:55:39.831Z,50.34
2018-07-03T00:58:08.528Z,49.82
2018-07-03T01:00:37.180Z,50.11
2018-07-03T01:03:05.872Z,49.95
2018-07-03T01:05:34.693Z,49.84
2018-07-03T01:08:03.452Z,50.03
2018-07-03T01:10:32.090Z,50.28
2018-07-03T01:13:00.760Z,49.86
2018-07-03T01:15:29.398Z,50.15
2018-07-03T01:17:58.094Z,50.77
2018-07-03T01:20:26.774Z,50.74
2018-07-03T01:22:55.438Z,50.19
2018-07-03T01:25:24.096Z,50.33
2018-07-03T01:27:52.768Z,50.17
2018-07-03T01:30:21.447Z,50.63
2018-07-03T01:32:50.395Z,49.96
2018-07-03T01:35:19.388Z,49.76
2018-07-03T01:37:48.293Z,49.95
2018-07-03T01:40:16.914Z,50.51
2018-07-03T01:42:45.565Z,50.09
2018-07-03T01:45:14.253Z,50.07
2018-07-03T01:47:42.928Z,50.29
2018-07-03T01:50:11.667Z,50.40
2018-07-03T01:52:40.252Z,50.41
2018-07-03T01:55:08.912Z,50.56
2018-07-03T01:57:37.568Z,51.10
2018-07-03T02:00:06.441Z,50.97
2018-07-03T02:02:35.365Z,51.53
2018-07-03T02:05:04.357Z,52.50
2018-07-03T02:07:33.277Z,52.55
2018-07-03T02:10:02.352Z,52.70
2018-07-03T02:12:31.278Z,51.98
2018-07-03T02:15:00.137Z,52.33
2018-07-03T02:17:29.147Z,52.51
2018-07-03T02:19:58.180Z,51.95
2018-07-03T02:22:27.304Z,51.77
2018-07-03T02:24:56.649Z,51.33
2018-07-03T02:27:25.144Z,51.46
2018-07-03T02:29:54.178Z,51.87
2018-07-03T02:32:23.374Z,51.66
2018-07-03T02:34:52.247Z,51.92
2018-07-03T02:37:21.203Z,52.41
2018-07-03T02:39:50.161Z,52.15
2018-07-03T02:42:19.201Z,51.29
2018-07-03T02:44:48.114Z,52.32
2018-07-03T02:47:17.133Z,52.57
2018-07-03T02:49:46.101Z,51.29
2018-07-03T02:52:15.329Z,52.16
2018-07-03T02:54:44.388Z,52.54
2018-07-03T02:57:13.381Z,52.96
2018-07-03T02:59:42.488Z,53.09
2018-07-03T03:02:11.392Z,52.93
2018-07-03T03:04:40.443Z,52.27
2018-07-03T03:07:09.415Z,53.43
2018-07-03T03:09:38.583Z,53.17
2018-07-03T03:12:07.358Z,53.17
2018-07-03T03:14:36.424Z,53.28
2018-07-03T03:17:08.469Z,53.38
2018-07-03T03:19:37.564Z,53.35
2018-07-03T03:22:06.443Z,54.37
2018-07-03T03:24:35.550Z,54.39
2018-07-03T03:27:06.855Z,54.14
2018-07-03T03:29:35.777Z,53.96
2018-07-03T03:32:04.715Z,54.05
2018-07-03T03:34:34.959Z,54.04
2018-07-03T03:37:04.229Z,53.66
2018-07-03T03:39:32.890Z,53.63
2018-07-03T03:42:01.613Z,53.96
2018-07-03T03:44:30.277Z,54.50
2018-07-03T03:46:58.974Z,54.72
2018-07-03T03:49:27.631Z,54.62
2018-07-03T03:51:56.309Z,55.26
2018-07-03T03:54:25.061Z,56.13
2018-07-03T03:56:53.701Z,55.32
2018-07-03T03:59:22.393Z,55.45
2018-07-03T04:01:51.087Z,55.12
2018-07-03T04:04:19.761Z,54.57
2018-07-03T04:06:48.462Z,54.14
2018-07-03T04:09:17.239Z,54.03
2018-07-03T04:11:45.949Z,53.66
2018-07-03T04:14:14.601Z,53.61
2018-07-03T04:16:43.292Z,52.91
2018-07-03T04:19:11.980Z,53.39
2018-07-03T04:21:40.659Z,53.52
2018-07-03T04:24:09.447Z,53.30
2018-07-03T04:26:38.239Z,53.10
2018-07-03T04:29:06.893Z,53.04
2018-07-03T04:31:35.560Z,51.62
2018-07-03T04:34:04.256Z,52.42
2018-07-03T04:36:33.294Z,52.47
2018-07-03T04:39:02.469Z,52.74
2018-07-03T04:41:31.396Z,52.77
2018-07-03T04:44:00.754Z,52.19
2018-07-03T04:46:29.722Z,52.22
2018-07-03T04:48:58.411Z,51.06
2018-07-03T04:51:27.286Z,52.47
2018-07-03T04:53:56.627Z,52.19
2018-07-03T04:56:25.928Z,51.79
2018-07-03T04:58:55.683Z,52.04
2018-07-03T05:01:24.886Z,51.52
2018-07-03T05:03:54.337Z,51.29
2018-07-03T05:06:23.575Z,51.00
2018-07-03T05:08:52.906Z,50.84
2018-07-03T05:11:22.411Z,50.75
2018-07-03T05:13:51.432Z,50.57
2018-07-03T05:16:20.632Z,50.22
2018-07-03T05:18:49.655Z,49.90
2018-07-03T05:21:18.494Z,49.70
2018-07-03T05:23:47.634Z,49.66
2018-07-03T05:26:17.409Z,49.77
2018-07-03T05:28:46.773Z,47.71
2018-07-03T05:31:15.999Z,48.10
2018-07-03T05:33:44.989Z,48.02
2018-07-03T05:36:14.319Z,46.00
2018-07-03T05:38:43.348Z,46.88
2018-07-03T05:41:12.593Z,46.59
2018-07-03T05:43:41.235Z,46.10
2018-07-03T05:46:10.552Z,45.93
2018-07-03T05:48:39.638Z,43.76
2018-07-03T05:51:08.861Z,44.69
2018-07-03T05:53:38.762Z,44.26
2018-07-03T05:56:07.904Z,43.55
2018-07-03T05:58:38.123Z,43.32
2018-07-03T06:01:07.021Z,42.88
2018-07-03T06:03:36.084Z,42.46
2018-07-03T06:06:04.803Z,41.96
2018-07-03T06:08:34.095Z,41.37
2018-07-03T06:11:03.017Z,40.92
2018-07-03T06:13:32.379Z,40.52
2018-07-03T06:16:01.460Z,39.90
2018-07-03T06:18:30.926Z,39.26
2018-07-03T06:21:02.818Z,38.68
2018-07-03T06:23:31.576Z,38.13
2018-07-03T06:26:01.012Z,37.64
2018-07-03T06:28:29.514Z,37.06
2018-07-03T06:30:58.594Z,34.50
2018-07-03T06:33:27.918Z,35.33
2018-07-03T06:35:56.857Z,35.14
2018-07-03T06:38:25.820Z,35.13
2018-07-03T06:40:54.597Z,34.83
2018-07-03T06:43:23.317Z,34.63
2018-07-03T06:45:52.625Z,34.54
2018-07-03T06:48:21.978Z,31.08
2018-07-03T06:50:51.230Z,32.29
2018-07-03T06:53:21.089Z,32.45
2018-07-03T06:55:50.433Z,32.21
2018-07-03T06:58:18.997Z,32.04
2018-07-03T07:00:47.667Z,31.71
2018-07-03T07:03:16.395Z,31.79
2018-07-03T07:05:45.051Z,29.18
2018-07-03T07:08:13.769Z,30.15
2018-07-03T07:10:42.599Z,30.04
2018-07-03T07:13:11.271Z,27.54
2018-07-03T07:15:39.979Z,28.77
2018-07-03T07:18:09.235Z,28.86
2018-07-03T07:20:38.755Z,29.14
2018-07-03T07:23:07.524Z,28.98
2018-07-03T07:25:39.213Z,28.84
2018-07-03T07:28:08.930Z,28.54
2018-07-03T07:30:38.259Z,28.58
2018-07-03T07:33:10.551Z,28.19
2018-07-03T07:35:41.536Z,28.32
2018-07-03T07:38:12.306Z,28.10
2018-07-03T07:40:41.573Z,27.71
2018-07-03T07:43:10.446Z,28.03
2018-07-03T07:45:39.156Z,27.93
2018-07-03T07:48:09.187Z,27.28
2018-07-03T07:50:38.153Z,25.19
2018-07-03T07:53:06.964Z,26.38
2018-07-03T07:55:35.747Z,26.77
2018-07-03T07:58:04.875Z,24.63
2018-07-03T08:00:34.571Z,26.19
2018-07-03T08:03:03.492Z,24.72
2018-07-03T08:05:32.190Z,26.03
2018-07-03T08:08:00.911Z,26.05
2018-07-03T08:10:29.611Z,24.17
2018-07-03T08:12:58.346Z,25.31
2018-07-03T08:15:27.022Z,26.04
2018-07-03T08:17:55.809Z,25.97
2018-07-03T08:20:24.558Z,26.42
2018-07-03T08:22:53.257Z,26.01
2018-07-03T08:25:22.027Z,25.97
2018-07-03T08:27:50.772Z,24.17
2018-07-03T08:30:19.526Z,25.26
2018-07-03T08:32:48.241Z,25.33
2018-07-03T08:35:16.957Z,25.08
2018-07-03T08:37:46.702Z,24.85
2018-07-03T08:40:15.488Z,25.05
2018-07-03T08:42:44.287Z,25.03
2018-07-03T08:45:12.910Z,24.64
2018-07-03T08:47:42.621Z,24.42
2018-07-03T08:50:11.553Z,24.20
2018-07-03T08:52:41.517Z,21.73
2018-07-03T08:55:14.997Z,23.22
2018-07-03T08:57:44.773Z,23.22
2018-07-03T09:00:14.122Z,23.42
2018-07-03T09:02:43.879Z,23.78
2018-07-03T09:05:12.604Z,23.50
2018-07-03T09:07:41.434Z,23.70
2018-07-03T09:10:10.715Z,23.62
2018-07-03T09:12:39.539Z,23.43
2018-07-03T09:15:08.227Z,23.66
2018-07-03T09:17:36.987Z,23.27
2018-07-03T09:20:05.761Z,22.63
2018-07-03T09:22:34.431Z,22.81
2018-07-03T09:25:03.122Z,22.81
2018-07-03T09:27:31.778Z,23.09
2018-07-03T09:30:01.459Z,22.82
2018-07-03T09:32:30.136Z,22.83
2018-07-03T09:34:58.902Z,22.97
2018-07-03T09:37:30.409Z,22.45
2018-07-03T09:42:46.724Z,22.10
2018-07-03T09:45:15.485Z,22.28
2018-07-03T09:47:44.158Z,22.33
2018-07-03T09:50:12.849Z,22.15
2018-07-03T09:52:49.220Z,22.17
2018-07-03T09:55:17.920Z,19.97
2018-07-03T09:57:46.594Z,19.66
2018-07-03T10:00:15.424Z,18.97
2018-07-03T10:02:44.169Z,20.14
2018-07-03T10:05:12.906Z,20.61
2018-07-03T10:07:41.609Z,20.57
2018-07-03T10:10:10.481Z,20.35
2018-07-03T10:12:39.281Z,20.31
2018-07-03T10:15:08.072Z,20.41
2018-07-03T10:17:36.694Z,20.56
2018-07-03T10:20:05.398Z,20.26
2018-07-03T10:22:34.328Z,18.49
2018-07-03T10:25:03.067Z,19.81
2018-07-03T10:27:32.070Z,20.01
2018-07-03T10:30:03.100Z,20.16
2018-07-03T10:32:31.766Z,20.33
2018-07-03T10:35:00.498Z,20.08
2018-07-03T10:37:29.271Z,19.92
2018-07-03T10:39:58.008Z,19.91
2018-07-03T10:42:26.780Z,19.70
2018-07-03T10:44:55.471Z,19.78
2018-07-03T10:47:24.794Z,19.58
2018-07-03T10:49:53.481Z,19.23
2018-07-03T10:52:22.128Z,19.60
2018-07-03T10:54:50.814Z,19.43
2018-07-03T10:57:19.515Z,19.09
2018-07-03T10:59:48.205Z,19.15
2018-07-03T11:02:16.887Z,19.46
2018-07-03T11:04:45.572Z,17.76
2018-07-03T11:07:14.274Z,18.82
2018-07-03T11:09:42.889Z,19.05
2018-07-03T11:12:11.600Z,19.13
2018-07-03T11:14:40.300Z,17.05
2018-07-03T11:17:08.986Z,16.81
2018-07-03T11:19:37.758Z,18.41
2018-07-03T11:22:06.453Z,18.83
2018-07-03T11:24:35.420Z,18.91
2018-07-03T11:27:04.052Z,18.67
2018-07-03T11:29:32.746Z,18.46
2018-07-03T11:32:01.417Z,16.64
2018-07-03T11:34:30.186Z,16.21
2018-07-03T11:36:58.829Z,17.64
2018-07-03T11:39:27.506Z,17.96
2018-07-03T11:41:56.146Z,18.07
2018-07-03T11:44:24.852Z,18.11
2018-07-03T11:46:53.498Z,18.15
2018-07-03T11:49:24.728Z,18.11
2018-07-03T11:51:54.054Z,18.13
2018-07-03T11:54:23.184Z,18.25
2018-07-03T11:56:51.737Z,18.25
2018-07-03T11:59:20.441Z,18.14
2018-07-03T12:01:49.069Z,18.24
2018-07-03T12:04:17.742Z,17.86
2018-07-03T12:06:46.390Z,16.46
2018-07-03T12:09:15.149Z,17.65
2018-07-03T12:11:43.773Z,17.49
2018-07-03T12:14:12.461Z,17.21
2018-07-03T12:16:41.140Z,17.48
2018-07-03T12:46:12.443Z,17.08
2018-07-03T12:48:41.097Z,15.24
2018-07-03T12:51:10.434Z,16.81
2018-07-03T12:53:39.100Z,16.88
2018-07-03T12:56:08.062Z,16.91
2018-07-03T12:58:38.200Z,16.78
2018-07-03T13:01:07.337Z,17.00
2018-07-03T13:03:36.255Z,16.79
2018-07-03T13:06:09.878Z,16.47
2018-07-03T13:08:39.058Z,16.24
2018-07-03T13:11:08.200Z,16.13
2018-07-03T13:13:37.404Z,16.19
2018-07-03T13:16:05.990Z,15.99
2018-07-03T13:21:24.953Z,16.39
2018-07-03T13:23:59.033Z,16.24
2018-07-03T13:26:34.169Z,16.19
2018-07-03T13:29:08.315Z,14.69
2018-07-03T13:31:37.696Z,15.54
2018-07-03T13:34:10.324Z,14.44
2018-07-03T13:36:45.421Z,14.04
2018-07-03T13:39:15.506Z,15.30
2018-07-03T13:41:45.327Z,15.05
2018-07-03T13:53:09.043Z,15.09
2018-07-03T13:55:38.339Z,14.93
2018-07-03T13:58:07.398Z,15.45
2018-07-03T14:00:37.471Z,14.93
2018-07-03T14:03:08.648Z,15.00
2018-07-03T14:05:37.965Z,14.92
2018-07-03T14:08:10.717Z,13.65
2018-07-03T14:10:42.652Z,13.34
2018-07-03T14:13:11.820Z,14.08
2018-07-03T14:15:42.752Z,14.49
2018-07-03T14:18:12.902Z,14.21
2018-07-03T14:20:43.589Z,14.09
2018-07-03T14:23:12.909Z,14.34
2018-07-03T14:25:41.938Z,14.31
2018-07-03T14:28:10.863Z,14.47
2018-07-03T14:30:40.280Z,14.18
2018-07-03T14:33:09.413Z,14.24
2018-07-03T14:35:38.135Z,14.50
2018-07-03T14:38:07.278Z,14.70
2018-07-03T14:40:35.988Z,14.80
2018-07-03T14:43:05.141Z,14.39
2018-07-03T14:45:34.563Z,14.35
2018-07-03T14:48:03.271Z,12.61
2018-07-03T14:50:32.437Z,11.97
2018-07-03T14:53:05.447Z,12.85
2018-07-03T14:55:34.144Z,12.88
2018-07-03T14:58:04.761Z,12.47
2018-07-03T15:00:37.032Z,12.25
2018-07-03T15:03:04.147Z,11.79
2018-07-03T15:05:33.045Z,12.12
2018-07-03T15:08:02.353Z,10.28
2018-07-03T15:10:34.825Z,11.30
2018-07-03T15:13:04.268Z,9.79
2018-07-03T15:15:34.919Z,10.23
2018-07-03T15:18:05.918Z,10.44
2018-07-03T15:20:41.698Z,10.71
2018-07-03T15:23:13.702Z,10.91
2018-07-03T15:25:44.936Z,10.81
2018-07-03T15:28:15.737Z,10.80
2018-07-03T15:30:45.621Z,8.77
2018-07-03T15:33:16.417Z,10.35
2018-07-03T15:35:54.422Z,10.47
2018-07-03T15:38:23.784Z,10.68
2018-07-03T15:40:55.081Z,10.64
2018-07-03T15:43:24.441Z,10.76
2018-07-03T15:45:59.527Z,10.70
2018-07-03T15:48:29.883Z,10.41
2018-07-03T15:51:04.489Z,10.37
2018-07-03T15:53:33.797Z,10.60
2018-07-03T15:56:03.143Z,10.47
2018-07-03T15:58:34.825Z,10.68
2018-07-03T16:01:10.361Z,11.03
2018-07-03T16:03:48.335Z,11.48
2018-07-03T16:09:34.290Z,12.18
2018-07-03T16:12:09.567Z,12.30
2018-07-03T16:14:46.730Z,12.54
2018-07-03T16:17:22.020Z,10.81
2018-07-03T16:19:54.908Z,12.15
2018-07-03T16:22:26.700Z,12.34
2018-07-03T16:24:59.892Z,12.27
2018-07-03T16:27:41.056Z,12.36
2018-07-03T16:30:17.846Z,12.77
2018-07-03T16:35:40.034Z,12.53
2018-07-03T16:38:09.864Z,12.75
2018-07-03T16:40:43.478Z,12.96
2018-07-03T16:43:13.650Z,13.04
2018-07-03T16:45:45.347Z,12.78
2018-07-03T16:48:20.641Z,12.26
2018-07-03T16:50:54.445Z,11.58
2018-07-03T16:53:35.207Z,11.39
2018-07-03T16:56:05.710Z,11.15
2018-07-03T16:58:37.168Z,11.01
2018-07-03T17:01:11.949Z,10.92
2018-07-03T17:03:42.671Z,11.12
2018-07-03T17:06:16.437Z,11.00
2018-07-03T17:08:59.919Z,10.89
2018-07-03T17:11:36.195Z,10.42
2018-07-03T17:14:09.484Z,9.92
2018-07-03T17:22:32.135Z,7.78
2018-07-03T17:25:02.261Z,9.28
2018-07-03T17:27:35.310Z,9.79
2018-07-03T17:30:06.365Z,8.77
2018-07-03T17:32:38.079Z,10.20
2018-07-03T17:35:08.423Z,10.89
2018-07-03T17:37:40.061Z,11.49
2018-07-03T17:40:39.296Z,11.99
2018-07-03T17:43:10.676Z,12.06
2018-07-03T17:45:53.941Z,11.65
2018-07-03T17:48:25.996Z,10.87
2018-07-03T17:50:56.204Z,10.64
2018-07-03T17:53:26.966Z,10.52
2018-07-03T17:56:07.106Z,10.86
2018-07-03T17:58:41.513Z,10.82
2018-07-03T18:01:24.672Z,11.11
2018-07-03T18:03:59.558Z,11.65
2018-07-03T18:06:29.127Z,9.83
2018-07-03T18:09:06.024Z,11.56
2018-07-03T18:11:39.438Z,12.42
2018-07-03T18:14:10.369Z,13.13
2018-07-03T18:16:46.623Z,13.71
2018-07-03T18:19:17.543Z,14.44
2018-07-03T18:24:40.545Z,15.08
2018-07-03T18:30:11.119Z,15.99
2018-07-03T18:32:43.464Z,16.56
2018-07-03T18:35:14.262Z,17.01
2018-07-03T18:38:04.387Z,17.47
2018-07-03T18:40:40.588Z,17.84
2018-07-03T18:43:16.975Z,18.29
2018-07-03T18:46:00.880Z,18.61
2018-07-03T18:48:34.498Z,18.86
2018-07-03T18:51:03.583Z,19.32
2018-07-03T18:53:35.879Z,19.63
2018-07-03T18:56:06.003Z,20.46
2018-07-03T18:58:36.327Z,20.90
2018-07-03T19:01:07.804Z,21.45
2018-07-03T19:06:40.762Z,22.13
2018-07-03T19:12:03.356Z,23.00
2018-07-03T19:14:32.487Z,23.20
2018-07-03T19:17:03.200Z,23.52
2018-07-03T19:19:37.584Z,24.07
2018-07-03T19:22:06.675Z,24.52
2018-07-03T19:24:35.423Z,24.82
2018-07-03T19:27:04.077Z,25.10
2018-07-03T19:29:32.785Z,25.56
2018-07-03T19:32:03.978Z,25.75
2018-07-03T19:34:32.666Z,25.75
2018-07-03T19:37:01.812Z,25.67
2018-07-03T19:39:36.296Z,25.81
2018-07-03T19:42:05.150Z,26.21
2018-07-03T19:44:34.619Z,26.66
2018-07-03T19:47:03.930Z,26.64
2018-07-03T19:49:33.208Z,27.08
2018-07-03T19:52:05.735Z,27.25
2018-07-03T19:54:38.220Z,27.37
2018-07-03T19:57:08.636Z,27.65
2018-07-03T19:59:37.860Z,27.93
2018-07-03T20:02:07.026Z,28.21
2018-07-03T20:04:36.972Z,28.44
2018-07-03T20:07:09.402Z,28.95
2018-07-03T20:09:38.271Z,29.38
2018-07-03T20:12:08.003Z,29.93
2018-07-03T20:14:37.123Z,30.28
2018-07-03T20:17:06.112Z,30.98
2018-07-03T20:19:35.378Z,32.39
2018-07-03T20:22:05.734Z,32.31
2018-07-03T20:24:35.809Z,32.66
2018-07-03T20:27:04.454Z,32.72
2018-07-03T20:29:33.644Z,32.57
2018-07-03T20:32:02.297Z,32.96
2018-07-03T20:34:33.500Z,33.04
2018-07-03T20:37:02.347Z,33.29
2018-07-03T20:39:33.347Z,33.37
2018-07-03T20:42:02.348Z,33.48
2018-07-03T20:44:31.767Z,33.73
2018-07-03T20:47:01.094Z,34.41
2018-07-03T20:49:30.584Z,33.47
2018-07-03T20:52:02.173Z,34.10
2018-07-03T20:54:31.334Z,34.47
2018-07-03T20:57:04.041Z,34.58
2018-07-03T20:59:36.003Z,34.29
2018-07-03T21:02:07.418Z,34.50
2018-07-03T21:04:41.363Z,34.96
2018-07-03T21:07:20.831Z,35.74
2018-07-03T21:09:52.566Z,35.92
2018-07-03T21:12:21.691Z,35.95
2018-07-03T21:14:52.571Z,36.00
2018-07-03T21:20:19.698Z,36.50
2018-07-03T21:22:51.365Z,36.94
2018-07-03T21:25:24.001Z,37.54
2018-07-03T21:27:53.351Z,37.06
2018-07-03T21:30:24.904Z,37.50
2018-07-03T21:32:57.400Z,37.65
2018-07-03T21:35:30.850Z,37.63
2018-07-03T21:38:00.405Z,37.69
2018-07-03T21:40:29.743Z,37.52
2018-07-03T21:42:58.408Z,37.63
2018-07-03T21:45:27.264Z,37.50
2018-07-03T21:47:57.439Z,37.56
2018-07-03T21:50:29.074Z,37.59
2018-07-03T21:53:00.780Z,37.64
2018-07-03T21:55:29.743Z,37.84
2018-07-03T21:57:59.023Z,38.04
2018-07-03T22:00:28.235Z,38.24
2018-07-03T22:02:57.724Z,38.34
2018-07-03T22:05:26.466Z,38.43
2018-07-03T22:07:55.279Z,38.53
2018-07-03T22:10:24.942Z,38.68
2018-07-03T22:12:57.144Z,39.09
2018-07-03T22:15:26.023Z,39.41
2018-07-03T22:17:55.415Z,39.62
2018-07-03T22:20:24.372Z,39.86
2018-07-03T22:22:53.805Z,40.38
2018-07-03T22:25:23.395Z,40.43
2018-07-03T22:27:52.033Z,40.59
2018-07-03T22:30:20.709Z,40.31
2018-07-03T22:32:49.354Z,40.17
2018-07-03T22:35:18.142Z,39.99
2018-07-03T22:37:46.933Z,40.28
2018-07-03T22:40:15.618Z,40.38
2018-07-03T22:42:44.505Z,40.78
2018-07-03T22:45:14.016Z,41.44
2018-07-03T22:47:43.246Z,42.07
2018-07-03T22:50:12.346Z,42.15
2018-07-03T22:52:40.838Z,42.44
2018-07-03T22:55:09.508Z,42.64
2018-07-03T22:57:38.143Z,42.72
2018-07-03T23:00:06.841Z,42.68
2018-07-03T23:02:35.189Z,42.92
2018-07-03T23:05:03.855Z,42.60
2018-07-03T23:07:32.479Z,42.74
2018-07-03T23:10:01.164Z,42.89
2018-07-03T23:12:29.804Z,42.98
2018-07-03T23:14:58.481Z,43.51
2018-07-03T23:17:27.162Z,43.40
2018-07-03T23:19:55.848Z,43.83
2018-07-03T23:22:33.704Z,43.14
2018-07-03T23:25:02.359Z,43.85
2018-07-03T23:27:31.805Z,43.34
2018-07-03T23:30:00.643Z,43.58
2018-07-03T23:32:29.750Z,43.73
2018-07-03T23:34:58.704Z,43.84
2018-07-03T23:37:28.022Z,44.83
2018-07-03T23:39:57.094Z,44.74
2018-07-03T23:42:26.064Z,44.94
2018-07-03T23:44:54.903Z,44.49
2018-07-03T23:48:02.893Z,44.56
2018-07-03T23:51:26.873Z,44.30
2018-07-03T23:54:51.179Z,45.40
2018-07-03T23:58:14.899Z,45.36
